EDT,Max TemperatureF,Mean TemperatureF,Min TemperatureF,Max Dew PointF,MeanDew PointF,Min DewpointF,Max Humidity, Mean Humidity, Min Humidity, Max Sea Level PressureIn, Mean Sea Level PressureIn, Min Sea Level PressureIn, Max VisibilityMiles, Mean VisibilityMiles, Min VisibilityMiles, Max Wind SpeedMPH, Mean Wind SpeedMPH, Max Gust SpeedMPH,PrecipitationIn, CloudCover, Events, WindDirDegrees
2012-10-1,68,59,50,54,51,48,96,77,58,29.88,29.70,29.63,10,10,10,21,10,28,0.02,3,Rain,234
2012-10-2,72,61,50,57,55,50,96,79,61,30.05,29.99,29.89,10,10,10,12,4,15,0.00,2,,214
2012-10-3,64,61,58,59,58,57,100,92,84,30.19,30.12,30.05,10,6,1,10,3,16,0.20,8,Rain,55
2012-10-4,60,59,57,59,57,55,100,97,93,30.19,30.13,30.04,10,5,0,12,3,25,0.22,8,Fog-Rain,75
2012-10-5,70,64,58,61,58,57,100,87,73,30.03,29.97,29.89,10,6,1,13,3,15,0.00,6,,186
2012-10-6,71,60,49,63,57,47,93,83,73,29.88,29.78,29.65,10,8,2,22,7,30,0.18,4,Rain,211
2012-10-7,58,49,40,45,42,38,93,74,55,30.05,30.01,29.89,10,10,5,13,5,,0.18,2,Rain,254
2012-10-8,56,48,39,46,43,39,100,81,61,30.34,30.21,30.06,10,10,1,23,3,,0.03,4,Rain,262
2012-10-9,57,50,43,47,44,40,93,80,66,30.35,30.28,30.18,10,9,2,20,6,29,0.11,6,Rain,44
2012-10-10,60,53,45,58,50,41,93,88,82,30.18,29.90,29.66,10,6,1,15,6,25,0.54,8,Rain,48
2012-10-11,57,51,45,50,35,28,96,66,35,30.09,29.96,29.72,10,10,10,26,12,35,0.00,2,,258
2012-10-12,53,45,37,43,32,24,83,61,38,30.32,30.08,29.94,10,10,5,23,9,32,0.04,3,Rain,286
2012-10-13,52,41,29,34,26,21,85,58,30,30.43,30.37,30.30,10,10,10,14,4,21,0.00,1,,285
2012-10-14,55,49,42,52,46,29,100,75,49,30.30,30.08,29.93,10,9,1,15,4,20,0.19,7,Rain,246
2012-10-15,67,57,46,59,52,45,100,89,78,29.92,29.78,29.57,10,6,0,14,6,24,0.01,4,Fog-Rain,198
2012-10-16,61,48,34,59,45,33,97,74,51,29.85,29.62,29.52,10,10,10,21,7,28,0.03,5,Rain,289
2012-10-17,62,47,32,41,35,29,96,68,39,30.01,29.94,29.87,10,10,9,9,2,13,0.00,0,,254
2012-10-18,62,51,39,51,45,38,93,77,60,30.16,30.10,30.01,10,10,5,14,3,17,0.00,1,,146
2012-10-19,64,56,47,62,53,45,100,89,78,30.14,30.00,29.78,10,6,0,22,10,36,0.49,7,Fog-Rain,106
2012-10-20,64,58,52,63,59,50,100,92,83,29.79,29.69,29.61,10,2,0,13,5,18,0.28,7,Fog-Rain,173
2012-10-21,63,55,46,48,42,40,83,65,46,29.81,29.77,29.67,10,10,10,21,8,30,0.00,2,,260
2012-10-22,64,52,40,41,39,37,83,61,39,29.95,29.87,29.80,10,10,10,23,8,30,0.00,1,,293
2012-10-23,63,51,38,43,36,27,92,63,34,30.13,30.05,29.96,10,10,10,14,4,20,0.00,0,,324
2012-10-24,61,47,32,41,34,28,89,61,32,30.22,30.17,30.13,10,10,10,10,2,15,0.00,0,,250
2012-10-25,54,46,38,43,38,31,92,76,59,30.36,30.29,30.24,10,10,10,13,5,16,0.00,1,,67
2012-10-26,62,52,41,52,46,39,100,85,69,30.27,30.21,30.14,10,5,0,12,2,18,0.00,3,Fog,214
2012-10-27,61,52,43,52,47,43,100,82,64,30.14,30.10,30.05,10,3,0,8,2,18,0.00,4,Fog,17
2012-10-28,53,50,47,48,45,41,89,80,71,30.08,30.01,29.90,10,10,10,16,9,29,0.00,7,,24
2012-10-29,60,56,51,57,53,48,100,93,86,29.88,29.67,29.45,10,3,1,43,23,63,0.84,8,Rain,57
2012-10-30,66,62,58,60,58,57,97,92,87,29.66,29.58,29.48,9,5,1,26,13,51,0.27,7,Rain,108
2012-10-31,61,56,50,58,53,45,100,84,67,29.57,29.54,29.52,10,8,1,18,8,46,0.01,7,Rain,162